CST,Max TemperatureF,Mean TemperatureF,Min TemperatureF,Max Dew PointF,MeanDew PointF,Min DewpointF,Max Humidity, Mean Humidity, Min Humidity, Max Sea Level PressureIn, Mean Sea Level PressureIn, Min Sea Level PressureIn, Max VisibilityMiles, Mean VisibilityMiles, Min VisibilityMiles, Max Wind SpeedMPH, Mean Wind SpeedMPH, Max Gust SpeedMPH,PrecipitationIn, CloudCover, Events, WindDirDegrees
2013-12-1,53,36,19,31,25,17,93,77,41,30.14,29.99,29.78,10,10,10,9,3,,0.00,1,,261
2013-12-2,63,46,28,34,29,24,85,61,31,29.78,29.61,29.52,10,10,7,13,6,,0.00,1,,269
2013-12-3,40,32,23,32,27,18,98,85,69,29.76,29.60,29.50,10,8,1,22,9,31,0.02,6,,7
2013-12-4,23,17,10,17,7,-2,89,68,51,30.13,29.86,29.73,10,9,3,29,21,33,0.00,5,Snow,333
2013-12-5,16,10,3,-3,-6,-8,70,54,34,30.36,30.25,30.14,10,10,10,22,13,29,0.00,2,,346
2013-12-6,14,6,-3,-6,-8,-11,77,59,34,30.57,30.46,30.36,10,10,10,10,5,16,0.00,1,,2
2013-12-7,11,4,-3,6,-5,-11,84,66,45,30.57,30.41,30.15,10,9,2,15,7,21,0.00,5,Snow,126
2013-12-8,15,7,-2,12,6,-8,87,82,67,30.16,30.02,29.91,10,5,1,15,9,21,0.00,7,Snow,89
2013-12-9,21,8,-6,9,0,-12,81,68,49,30.24,30.14,30.05,10,10,10,17,9,26,0.00,0,,256
2013-12-10,38,24,11,22,14,5,78,62,39,30.29,30.10,30.01,10,10,10,23,9,28,0.00,2,,264
2013-12-11,27,16,6,18,12,3,89,76,63,30.56,30.42,30.29,10,10,10,18,10,29,0.00,1,Snow,231
2013-12-12,49,29,9,23,15,7,89,71,28,30.34,30.18,29.98,10,10,7,10,5,,0.00,0,,246
2013-12-13,43,28,12,25,18,9,91,76,46,30.10,29.90,29.79,10,10,7,16,5,22,0.00,1,,10
2013-12-14,47,30,12,28,18,10,90,73,38,30.19,30.14,30.09,10,10,7,20,10,23,0.00,2,,312
2013-12-15,58,42,26,26,24,20,82,57,28,30.09,30.01,29.95,10,10,10,18,8,25,0.00,3,,290
2013-12-16,58,41,24,28,24,20,88,63,28,30.20,30.05,29.98,10,10,7,14,6,,0.00,0,,297
2013-12-17,48,34,20,27,22,18,91,65,34,30.33,30.20,30.01,10,10,5,18,8,22,0.00,0,,255
2013-12-18,69,46,24,25,21,18,81,50,14,30.00,29.80,29.69,10,9,5,13,5,,0.00,0,,285
2013-12-19,38,25,12,28,20,7,85,76,61,29.95,29.78,29.69,10,10,4,23,12,29,0.00,4,Snow,24
2013-12-20,22,16,8,11,8,5,83,73,60,29.97,29.88,29.77,10,10,7,23,11,26,0.00,5,Snow,334
2013-12-21,33,20,7,16,10,4,87,74,45,29.90,29.74,29.67,10,10,10,14,2,,0.00,1,,30
2013-12-22,32,19,6,16,11,4,91,75,46,30.34,30.10,29.90,10,9,2,18,8,24,0.00,4,Snow,353
2013-12-23,16,12,7,12,6,3,86,76,61,30.50,30.40,30.27,10,10,2,13,8,,0.00,6,Snow,114
2013-12-24,39,26,12,34,22,8,93,85,72,30.25,30.11,29.98,10,8,4,21,11,25,0.00,5,,227
2013-12-25,43,30,16,27,20,13,94,76,40,30.36,30.28,30.20,10,10,10,16,8,24,0.00,0,,294
2013-12-26,55,34,14,23,19,11,88,60,26,30.24,30.17,30.10,10,10,10,20,9,26,0.00,0,,293
2013-12-27,61,38,16,25,20,14,89,61,24,30.24,30.16,30.04,10,10,10,14,5,,0.00,0,,271
2013-12-28,60,38,14,28,19,4,89,64,25,30.23,29.94,29.76,10,10,10,32,8,40,0.00,1,Snow,332
2013-12-29,21,13,5,4,1,-1,77,59,39,30.37,30.26,30.08,10,10,10,29,16,37,0.00,1,,336
2013-12-30,49,32,15,26,16,3,90,63,37,30.20,30.08,29.97,10,10,10,25,8,29,0.00,3,,278
2013-12-31,56,38,19,24,20,15,89,65,28,30.20,30.01,29.91,10,10,10,16,7,16,0.00,0,,114